Time;durP1;ratioP1;P1;durP2;ratioP2;P2;SDS_P1;SDS_P2;PMS_P1;PMS_P2;Temp;Humidity;BMP_temperature;BMP_pressure;BME280_temperature;BME280_humidity;BME280_pressure;Samples;Min_cycle;Max_cycle;Signal;HPM_P1;HPM_P2
2023/06/09 00:00:56;;;;;;;13.48;4.78;;;;;;;18.19;63.52;101395.22;5084319;28;20028;-69
2023/06/09 00:03:21;;;;;;;9.15;4.30;;;;;;;18.18;63.43;101389.09;5082113;28;20024;-69
2023/06/09 00:05:48;;;;;;;13.48;4.72;;;;;;;18.16;64.39;101387.44;5084234;28;20024;-69
2023/06/09 00:08:13;;;;;;;10.43;5.28;;;;;;;18.10;63.47;101393.00;5083194;28;20107;-69
2023/06/09 00:10:38;;;;;;;15.73;5.18;;;;;;;18.06;63.32;101388.81;5083418;28;20116;-69
2023/06/09 00:13:04;;;;;;;10.25;4.95;;;;;;;17.95;64.02;101397.19;5081527;28;20043;-69
2023/06/09 00:15:29;;;;;;;8.88;4.53;;;;;;;17.93;64.11;101388.50;5075284;28;20154;-69
2023/06/09 00:17:55;;;;;;;8.55;4.63;;;;;;;17.89;64.80;101387.81;5078486;28;20028;-69
2023/06/09 00:20:20;;;;;;;9.02;5.28;;;;;;;17.88;64.39;101385.22;5081041;28;20028;-69
2023/06/09 00:22:48;;;;;;;10.55;4.80;;;;;;;17.83;64.13;101395.13;5084995;28;20028;-69
2023/06/09 00:25:15;;;;;;;8.32;5.25;;;;;;;17.77;64.19;101383.91;5084396;28;20024;-69
2023/06/09 00:27:43;;;;;;;9.40;4.60;;;;;;;17.78;64.71;101384.78;5080926;28;20515;-69
2023/06/09 00:30:09;;;;;;;9.70;4.80;;;;;;;17.69;64.80;101388.66;5083436;28;20051;-69
2023/06/09 00:32:35;;;;;;;9.10;4.75;;;;;;;17.62;64.73;101383.72;5075008;28;20391;-69
2023/06/09 00:35:01;;;;;;;9.93;4.85;;;;;;;17.57;65.31;101385.72;5083305;28;20112;-68
2023/06/09 00:37:26;;;;;;;8.70;4.80;;;;;;;17.52;65.93;101392.03;5083081;28;20031;-69
2023/06/09 00:39:52;;;;;;;10.00;4.78;;;;;;;17.50;65.74;101382.50;5084441;28;20017;-69
2023/06/09 00:42:17;;;;;;;15.45;5.05;;;;;;;17.46;65.57;101384.41;5084245;28;20077;-68
2023/06/09 00:44:42;;;;;;;9.32;4.93;;;;;;;17.45;66.60;101387.09;5082483;28;20423;-69
2023/06/09 00:47:08;;;;;;;13.38;5.00;;;;;;;17.42;66.01;101385.44;5083050;28;20460;-69
2023/06/09 00:49:34;;;;;;;11.20;5.20;;;;;;;17.35;65.26;101391.91;5084216;28;20050;-69
2023/06/09 00:51:59;;;;;;;10.77;5.05;;;;;;;17.35;65.65;101391.06;5079856;28;20032;-69
2023/06/09 00:54:25;;;;;;;12.30;5.10;;;;;;;17.34;66.33;101384.94;5087681;28;20056;-68
2023/06/09 00:56:50;;;;;;;12.07;5.20;;;;;;;17.32;65.76;101376.22;5081704;28;20024;-69
2023/06/09 00:59:16;;;;;;;10.38;5.10;;;;;;;17.27;66.57;101388.75;5091999;28;20482;-69
2023/06/09 01:01:43;;;;;;;9.68;5.13;;;;;;;17.21;66.00;101379.31;5084486;28;20424;-69
2023/06/09 01:04:08;;;;;;;10.93;4.93;;;;;;;17.17;66.52;101382.16;5092470;28;20020;-69
2023/06/09 01:06:46;;;;;;;12.57;5.35;;;;;;;17.22;65.57;101373.13;5084037;28;20025;-69
2023/06/09 01:09:35;;;;;;;9.13;4.30;;;;;;;17.20;65.83;101371.47;5092236;28;20441;-69
2023/06/09 01:12:15;;;;;;;10.30;5.00;;;;;;;17.12;66.06;101376.22;5081033;28;20033;-69
2023/06/09 01:15:21;;;;;;;12.40;4.68;;;;;;;17.05;65.88;101373.84;5092603;28;20124;-69
2023/06/09 01:17:51;;;;;;;10.20;4.68;;;;;;;17.00;66.64;101373.19;5072657;28;20032;-69
2023/06/09 01:20:32;;;;;;;10.68;5.28;;;;;;;16.99;66.06;101373.25;5093701;28;20085;-69
2023/06/09 01:23:05;;;;;;;10.77;5.03;;;;;;;16.96;67.05;101362.84;5070889;28;20043;-69
2023/06/09 01:25:34;;;;;;;8.52;4.82;;;;;;;16.89;67.07;101364.00;5085762;28;20043;-69
2023/06/09 01:28:10;;;;;;;10.10;4.93;;;;;;;16.81;67.25;101362.56;5086398;28;20118;-69
2023/06/09 01:30:36;;;;;;;13.00;5.05;;;;;;;16.80;67.13;101357.34;5085561;28;20047;-69
2023/06/09 01:33:06;;;;;;;9.75;5.03;;;;;;;16.72;66.99;101362.03;5086581;28;20024;-69
2023/06/09 01:35:32;;;;;;;12.05;4.85;;;;;;;16.60;67.21;101351.06;5086860;28;20467;-69
2023/06/09 01:37:59;;;;;;;9.10;5.07;;;;;;;16.66;67.37;101357.03;5085934;28;20031;-69
2023/06/09 01:40:25;;;;;;;9.50;4.90;;;;;;;16.64;67.52;101357.06;5087289;28;20027;-69
2023/06/09 01:42:52;;;;;;;9.80;4.70;;;;;;;16.65;67.67;101357.97;5085485;28;20032;-69
2023/06/09 01:45:17;;;;;;;7.30;4.60;;;;;;;16.57;67.55;101359.09;5087185;28;20062;-69
2023/06/09 01:47:43;;;;;;;11.95;5.55;;;;;;;16.57;67.98;101361.72;5086110;28;20056;-69
2023/06/09 01:50:17;;;;;;;12.55;4.95;;;;;;;16.50;68.06;101364.69;5085578;28;20468;-69
2023/06/09 01:52:58;;;;;;;9.90;5.07;;;;;;;16.44;68.77;101363.13;5087886;28;20117;-69
2023/06/09 01:55:32;;;;;;;18.42;5.05;;;;;;;16.40;68.41;101353.66;5071723;28;20076;-69
2023/06/09 01:58:03;;;;;;;9.90;5.40;;;;;;;16.40;68.78;101343.13;5086156;28;20499;-69
2023/06/09 02:00:30;;;;;;;12.10;4.88;;;;;;;16.39;68.97;101351.94;5072740;28;20070;-69
2023/06/09 02:02:59;;;;;;;10.65;5.65;;;;;;;16.33;68.99;101358.31;5086816;28;20024;-69
2023/06/09 02:05:25;;;;;;;13.48;5.68;;;;;;;16.22;68.91;101355.25;5085684;28;20032;-69
2023/06/09 02:07:53;;;;;;;11.43;5.50;;;;;;;16.25;69.20;101359.50;5088276;28;20035;-69
2023/06/09 02:10:21;;;;;;;15.70;5.68;;;;;;;16.21;68.80;101350.88;5082890;28;20498;-69
2023/06/09 02:12:46;;;;;;;10.90;5.55;;;;;;;16.20;68.72;101349.19;5090238;28;20137;-69
2023/06/09 02:15:11;;;;;;;11.90;5.35;;;;;;;16.14;69.16;101352.91;5082538;28;20168;-69
2023/06/09 02:17:36;;;;;;;9.88;5.70;;;;;;;16.11;69.19;101345.13;5091402;28;20032;-69
2023/06/09 02:20:05;;;;;;;10.95;5.20;;;;;;;16.08;69.48;101341.75;5082726;28;20036;-69
2023/06/09 02:22:30;;;;;;;11.20;5.50;;;;;;;16.08;70.69;101347.88;5082210;28;20033;-69
2023/06/09 02:24:56;;;;;;;12.07;5.53;;;;;;;16.08;70.52;101341.75;5086117;28;20096;-69
2023/06/09 02:27:21;;;;;;;15.57;6.43;;;;;;;15.99;70.58;101340.34;5085717;28;20119;-69
2023/06/09 02:29:47;;;;;;;9.05;5.32;;;;;;;15.89;69.96;101342.47;5083958;28;20541;-69
2023/06/09 02:32:12;;;;;;;10.65;5.80;;;;;;;15.89;70.60;101345.09;5088243;28;20433;-69
2023/06/09 02:34:37;;;;;;;9.95;5.57;;;;;;;15.86;70.22;101342.59;5082837;28;20130;-69
2023/06/09 02:37:07;;;;;;;13.05;5.60;;;;;;;15.84;70.34;101343.56;5089269;28;20498;-69
2023/06/09 02:39:32;;;;;;;16.50;5.65;;;;;;;15.73;71.02;101335.19;5081314;28;20036;-69
2023/06/09 02:41:58;;;;;;;13.73;5.75;;;;;;;15.71;71.41;101342.28;5090070;28;20040;-69
2023/06/09 02:44:24;;;;;;;11.55;5.78;;;;;;;15.67;71.62;101339.78;5082111;28;20032;-69
2023/06/09 02:46:49;;;;;;;10.18;5.38;;;;;;;15.67;71.00;101329.25;5090171;28;20028;-69
2023/06/09 02:49:16;;;;;;;11.52;5.57;;;;;;;15.68;71.34;101343.25;5082974;28;20384;-69
2023/06/09 02:51:42;;;;;;;13.52;5.65;;;;;;;15.65;71.81;101332.81;5087663;28;20056;-69
2023/06/09 02:54:07;;;;;;;12.40;5.13;;;;;;;15.63;71.72;101334.63;5084434;28;20024;-69
2023/06/09 02:56:33;;;;;;;9.20;5.88;;;;;;;15.57;72.07;101338.38;5086315;28;20127;-69
2023/06/09 02:58:58;;;;;;;14.18;5.75;;;;;;;15.61;72.45;101339.97;5084806;28;20028;-68
2023/06/09 03:01:27;;;;;;;12.68;5.97;;;;;;;15.50;72.55;101336.88;5084908;28;20032;-69
2023/06/09 03:03:52;;;;;;;8.48;5.75;;;;;;;15.56;72.28;101334.00;5085329;28;20059;-69
2023/06/09 03:06:19;;;;;;;10.27;5.60;;;;;;;15.42;72.68;101331.88;5084192;28;20055;-69
2023/06/09 03:08:45;;;;;;;12.32;6.25;;;;;;;15.44;73.10;101340.56;5085218;28;20027;-69
2023/06/09 03:11:10;;;;;;;10.85;5.63;;;;;;;15.46;73.04;101337.88;5085445;28;20032;-69
2023/06/09 03:13:36;;;;;;;10.02;6.00;;;;;;;15.48;73.38;101345.72;5084686;28;20032;-69
2023/06/09 03:16:04;;;;;;;12.88;6.38;;;;;;;15.39;73.51;101350.38;5085483;28;20035;-69
2023/06/09 03:18:30;;;;;;;19.52;6.05;;;;;;;15.37;73.89;101344.34;5084398;28;20598;-69
2023/06/09 03:21:00;;;;;;;18.25;6.03;;;;;;;15.30;73.43;101347.22;5084852;28;20020;-69
2023/06/09 03:23:25;;;;;;;13.75;6.07;;;;;;;15.27;74.43;101352.56;5081042;28;20039;-69
2023/06/09 03:25:51;;;;;;;16.17;6.35;;;;;;;15.23;75.08;101347.44;5082265;28;20028;-69
2023/06/09 03:28:17;;;;;;;12.85;6.80;;;;;;;15.22;74.74;101340.47;5084973;28;20032;-69
2023/06/09 03:30:42;;;;;;;15.00;6.47;;;;;;;15.16;74.87;101329.31;5083360;28;20040;-69
2023/06/09 03:33:08;;;;;;;12.00;6.32;;;;;;;15.19;75.56;101353.69;5084568;28;20069;-69
2023/06/09 03:35:33;;;;;;;17.52;6.47;;;;;;;15.20;75.60;101358.06;5084077;28;20462;-69
2023/06/09 03:37:59;;;;;;;13.75;6.60;;;;;;;15.21;75.33;101349.28;5084061;28;20028;-69
2023/06/09 03:40:24;;;;;;;16.42;6.55;;;;;;;15.19;76.30;101350.22;5083411;28;20040;-69
2023/06/09 03:42:49;;;;;;;14.80;6.85;;;;;;;15.13;75.75;101346.03;5083322;28;20455;-69
2023/06/09 03:45:14;;;;;;;12.32;6.65;;;;;;;15.11;75.91;101345.25;5085020;28;20063;-69
2023/06/09 03:47:40;;;;;;;16.55;6.45;;;;;;;15.13;76.96;101367.03;5084383;28;20037;-69
2023/06/09 03:50:06;;;;;;;16.23;7.28;;;;;;;15.20;76.49;101368.56;5083287;28;20036;-69
2023/06/09 03:52:32;;;;;;;16.83;6.78;;;;;;;15.18;76.11;101370.38;5086975;28;20464;-69
2023/06/09 03:54:57;;;;;;;14.93;7.00;;;;;;;15.18;76.15;101378.25;5080237;28;20034;-69
2023/06/09 03:57:22;;;;;;;12.32;6.35;;;;;;;15.18;76.52;101373.00;5089117;28;20145;-69
2023/06/09 03:59:48;;;;;;;11.52;6.22;;;;;;;15.13;76.78;101366.19;5081243;28;20104;-68
2023/06/09 04:02:13;;;;;;;13.48;6.72;;;;;;;14.99;76.63;101340.41;5088792;28;20027;-69
2023/06/09 04:04:38;;;;;;;12.48;6.00;;;;;;;15.12;76.71;101370.59;5081262;28;20070;-69
2023/06/09 04:07:04;;;;;;;12.55;6.65;;;;;;;15.13;77.39;101368.81;5088370;28;20376;-69
2023/06/09 04:09:32;;;;;;;11.85;6.70;;;;;;;15.20;76.67;101365.06;5081134;28;20032;-69
2023/06/09 04:11:58;;;;;;;10.05;6.43;;;;;;;14.87;76.89;101320.66;5081183;28;20080;-69
2023/06/09 04:14:23;;;;;;;11.68;6.53;;;;;;;15.12;77.41;101370.59;5083380;28;20102;-69
2023/06/09 04:16:48;;;;;;;13.90;6.78;;;;;;;15.19;76.65;101372.09;5084227;28;20176;-69
2023/06/09 04:19:14;;;;;;;17.08;6.53;;;;;;;15.19;76.94;101379.97;5084347;28;20489;-69
2023/06/09 04:21:39;;;;;;;17.02;6.63;;;;;;;15.21;77.05;101380.78;5081312;28;20054;-69
2023/06/09 04:24:05;;;;;;;12.38;6.32;;;;;;;15.27;77.56;101373.59;5076236;28;20036;-69
2023/06/09 04:26:32;;;;;;;13.13;7.22;;;;;;;15.28;76.73;101376.19;5087928;28;20028;-69
2023/06/09 04:28:58;;;;;;;14.13;5.95;;;;;;;15.24;77.09;101374.56;5079899;28;20036;-69
2023/06/09 04:31:23;;;;;;;11.77;6.53;;;;;;;15.26;77.07;101371.88;5086139;28;20026;-69
2023/06/09 04:33:52;;;;;;;12.95;6.57;;;;;;;15.34;76.61;101380.38;5082049;28;20491;-69
2023/06/09 04:36:18;;;;;;;18.33;7.20;;;;;;;15.31;77.33;101378.69;5084276;28;20112;-69
2023/06/09 04:38:45;;;;;;;16.27;7.35;;;;;;;15.38;77.31;101385.47;5083158;28;20111;-69
2023/06/09 04:41:11;;;;;;;15.48;6.45;;;;;;;15.41;76.97;101387.13;5083168;28;20031;-69
2023/06/09 04:43:39;;;;;;;14.20;6.07;;;;;;;15.41;77.76;101366.97;5083290;28;20038;-69
2023/06/09 04:46:05;;;;;;;14.88;7.20;;;;;;;15.50;77.43;101381.56;5083018;28;20026;-69
2023/06/09 04:48:33;;;;;;;16.02;6.68;;;;;;;15.57;76.66;101382.19;5084035;28;20118;-69
2023/06/09 04:51:00;;;;;;;14.05;6.82;;;;;;;15.64;76.69;101378.44;5081720;28;20028;-69
2023/06/09 04:53:26;;;;;;;11.23;6.07;;;;;;;15.62;75.71;101373.22;5084101;28;20034;-69
2023/06/09 04:55:52;;;;;;;11.95;6.35;;;;;;;15.62;76.47;101378.47;5083813;28;20116;-69
2023/06/09 04:58:18;;;;;;;14.05;6.53;;;;;;;15.71;76.26;101384.34;5082231;28;20103;-69
2023/06/09 05:00:43;;;;;;;12.68;6.20;;;;;;;15.79;76.39;101384.91;5083347;28;20044;-69
2023/06/09 05:03:08;;;;;;;16.23;6.50;;;;;;;15.82;75.45;101383.03;5083003;28;20024;-69
2023/06/09 05:05:33;;;;;;;15.75;6.45;;;;;;;15.82;76.26;101382.16;5082754;28;20036;-69
2023/06/09 05:07:59;;;;;;;18.92;6.85;;;;;;;15.86;76.68;101384.66;5084940;28;20476;-69
2023/06/09 05:10:25;;;;;;;15.98;6.93;;;;;;;15.88;75.72;101381.94;5082171;28;20043;-69
2023/06/09 05:12:50;;;;;;;16.02;6.53;;;;;;;15.88;76.66;101377.53;5086106;28;20115;-69
2023/06/09 05:15:16;;;;;;;16.92;6.97;;;;;;;15.95;76.95;101391.31;5080489;28;20024;-69
2023/06/09 05:17:42;;;;;;;15.27;6.70;;;;;;;15.97;76.59;101379.00;5088679;28;20428;-69
2023/06/09 05:20:08;;;;;;;15.18;6.65;;;;;;;16.00;76.97;101388.53;5079427;28;20074;-69
2023/06/09 05:22:35;;;;;;;12.60;7.20;;;;;;;16.00;77.30;101383.28;5077054;28;20056;-69
2023/06/09 05:25:03;;;;;;;20.38;7.93;;;;;;;16.10;76.88;101397.81;5082719;28;20051;-69
2023/06/09 05:27:29;;;;;;;15.10;7.45;;;;;;;16.14;76.95;101387.09;5081797;28;20176;-69
2023/06/09 05:29:55;;;;;;;19.05;7.13;;;;;;;16.26;76.57;101398.06;5082926;28;20403;-69
2023/06/09 05:32:20;;;;;;;23.15;8.75;;;;;;;16.29;76.70;101396.19;5083355;28;20029;-69
2023/06/09 05:34:45;;;;;;;26.35;8.35;;;;;;;16.37;76.03;101380.09;5080794;28;20024;-69
2023/06/09 05:37:14;;;;;;;16.77;7.70;;;;;;;16.41;76.24;101381.69;5086715;28;20021;-69
2023/06/09 05:39:40;;;;;;;20.30;7.57;;;;;;;16.55;77.00;101391.69;5069182;28;20082;-69
2023/06/09 05:42:07;;;;;;;21.17;8.23;;;;;;;16.60;76.78;101393.19;5087454;28;20043;-69
2023/06/09 05:44:32;;;;;;;13.75;7.65;;;;;;;16.70;76.42;101390.19;5083816;28;20380;-69
2023/06/09 05:46:58;;;;;;;16.60;8.55;;;;;;;16.79;75.94;101397.75;5090239;28;20035;-69
2023/06/09 05:49:23;;;;;;;18.85;8.40;;;;;;;16.81;76.28;101390.66;5083431;28;20020;-69
2023/06/09 05:51:48;;;;;;;18.13;8.15;;;;;;;16.90;74.78;101395.53;5090596;28;20055;-69
2023/06/09 05:54:13;;;;;;;18.77;7.93;;;;;;;16.92;76.10;101393.72;5083849;28;20106;-69
2023/06/09 05:56:39;;;;;;;16.52;8.18;;;;;;;16.96;76.19;101392.66;5088285;28;20028;-69
2023/06/09 05:59:04;;;;;;;13.82;8.70;;;;;;;17.02;75.96;101388.91;5086813;28;20055;-69
2023/06/09 06:01:30;;;;;;;18.63;8.90;;;;;;;17.07;75.27;101394.88;5085691;28;20792;-69
2023/06/09 06:03:56;;;;;;;18.95;9.63;;;;;;;17.13;75.48;101391.09;5086787;28;20032;-69
2023/06/09 06:06:21;;;;;;;14.45;8.90;;;;;;;17.16;75.48;101393.59;5086257;28;20073;-69
2023/06/09 06:08:46;;;;;;;19.00;8.88;;;;;;;17.21;75.41;101392.50;5085895;28;20055;-69
2023/06/09 06:11:12;;;;;;;15.23;9.13;;;;;;;17.30;76.28;101391.25;5086720;28;20028;-69
2023/06/09 06:13:37;;;;;;;16.23;8.50;;;;;;;17.41;77.15;101391.63;5085627;28;20035;-69
2023/06/09 06:16:03;;;;;;;17.20;10.00;;;;;;;17.49;75.67;101383.38;5085978;28;20016;-69
2023/06/09 06:18:28;;;;;;;18.98;9.70;;;;;;;17.57;76.24;101377.81;5086375;28;20100;-69
2023/06/09 06:20:53;;;;;;;14.05;8.90;;;;;;;17.60;75.78;101390.84;5086385;28;20027;-69
2023/06/09 06:23:19;;;;;;;21.33;10.60;;;;;;;17.67;74.45;101382.59;5085139;28;20024;-69
2023/06/09 06:25:44;;;;;;;24.50;10.02;;;;;;;17.72;75.87;101390.28;5084422;28;20426;-69
2023/06/09 06:28:10;;;;;;;19.92;9.55;;;;;;;17.77;75.16;101386.56;5086248;28;20488;-69
2023/06/09 06:30:37;;;;;;;18.83;10.68;;;;;;;17.85;75.38;101391.47;5084189;28;20085;-69
2023/06/09 06:33:03;;;;;;;19.15;10.57;;;;;;;17.92;75.04;101387.66;5086730;28;20027;-69
2023/06/09 06:35:29;;;;;;;21.17;10.32;;;;;;;17.96;75.42;101389.22;5085612;28;20024;-69
2023/06/09 06:37:55;;;;;;;19.40;10.40;;;;;;;18.10;75.27;101382.47;5084321;28;20063;-69
2023/06/09 06:40:22;;;;;;;19.38;10.45;;;;;;;18.13;76.22;101382.31;5079760;28;20028;-69
2023/06/09 06:42:47;;;;;;;18.45;10.38;;;;;;;18.25;75.66;101384.41;5083555;28;20028;-69
2023/06/09 06:45:12;;;;;;;21.02;10.73;;;;;;;18.38;74.79;101393.44;5086108;28;20069;-69
2023/06/09 06:47:40;;;;;;;19.17;10.40;;;;;;;18.42;74.40;101387.09;5086403;28;20068;-69
2023/06/09 06:50:06;;;;;;;16.08;11.23;;;;;;;18.51;73.49;101393.72;5083665;28;20082;-69
2023/06/09 06:52:33;;;;;;;19.90;11.23;;;;;;;18.56;73.21;101389.06;5088605;28;20032;-69
2023/06/09 06:54:58;;;;;;;19.05;10.25;;;;;;;18.59;72.86;101383.63;5082071;28;20108;-69
2023/06/09 06:57:23;;;;;;;19.60;11.43;;;;;;;18.67;73.44;101380.59;5089781;28;20104;-69
2023/06/09 06:59:49;;;;;;;19.23;10.40;;;;;;;18.74;74.28;101379.44;5082335;28;20408;-69
2023/06/09 07:02:14;;;;;;;20.02;10.95;;;;;;;18.85;73.67;101390.31;5090573;28;20455;-69
2023/06/09 07:04:39;;;;;;;21.55;10.10;;;;;;;18.94;72.80;101384.56;5081428;28;20040;-69
2023/06/09 07:07:05;;;;;;;18.05;10.35;;;;;;;19.05;72.80;101385.81;5090003;28;20016;-69
2023/06/09 07:09:30;;;;;;;18.40;11.23;;;;;;;19.13;72.76;101384.50;5083243;28;20569;-69
2023/06/09 07:11:55;;;;;;;20.00;11.25;;;;;;;19.21;71.19;101397.34;5086696;28;20522;-69
2023/06/09 07:14:21;;;;;;;18.40;10.90;;;;;;;19.26;70.86;101391.78;5085170;28;20027;-69
2023/06/09 07:16:46;;;;;;;21.02;11.23;;;;;;;19.35;71.92;101393.97;5085400;28;20077;-69
2023/06/09 07:19:11;;;;;;;14.80;10.23;;;;;;;19.41;70.62;101397.16;5084640;28;20027;-69
2023/06/09 07:21:37;;;;;;;19.52;10.57;;;;;;;19.47;71.73;101400.44;5083295;28;20035;-69
2023/06/09 07:24:05;;;;;;;21.40;11.00;;;;;;;19.56;70.26;101397.31;5077650;28;20070;-69
2023/06/09 07:26:32;;;;;;;20.33;11.07;;;;;;;19.61;70.10;101403.19;5088224;28;20391;-70
2023/06/09 07:28:57;;;;;;;19.13;11.90;;;;;;;19.64;70.19;101401.28;5081397;28;20475;-69
2023/06/09 07:31:23;;;;;;;21.00;12.35;;;;;;;19.73;70.62;101394.66;5087445;28;20026;-69
2023/06/09 07:33:48;;;;;;;21.60;11.73;;;;;;;19.81;69.40;101394.25;5082254;28;20106;-69
2023/06/09 07:36:14;;;;;;;15.95;11.05;;;;;;;19.92;69.29;101404.28;5085482;28;20115;-69
2023/06/09 07:38:42;;;;;;;15.10;10.98;;;;;;;20.01;69.38;101396.69;5083893;28;20417;-69
2023/06/09 07:41:07;;;;;;;17.73;11.63;;;;;;;20.05;68.62;101394.72;5076566;28;20020;-69
2023/06/09 07:43:33;;;;;;;21.23;11.00;;;;;;;20.20;68.34;101393.88;5085058;28;20122;-69
2023/06/09 07:45:58;;;;;;;16.52;10.60;;;;;;;20.32;68.02;101395.84;5082875;28;20020;-69
2023/06/09 07:48:24;;;;;;;14.25;11.02;;;;;;;20.44;69.19;101391.69;5084735;28;20077;-69
2023/06/09 07:50:50;;;;;;;20.17;11.10;;;;;;;20.57;69.33;101386.56;5084054;28;20040;-69
2023/06/09 07:53:15;;;;;;;17.73;10.70;;;;;;;20.68;67.87;101384.16;5083608;28;20486;-69
2023/06/09 07:55:40;;;;;;;17.80;11.15;;;;;;;20.83;66.28;101387.75;5084527;28;20028;-69
2023/06/09 07:58:05;;;;;;;20.17;11.25;;;;;;;20.97;66.77;101389.56;5083696;28;20043;-69
2023/06/09 08:00:31;;;;;;;15.70;10.65;;;;;;;21.08;64.81;101381.00;5083705;28;20040;-69
2023/06/09 08:03:03;;;;;;;17.27;10.65;;;;;;;21.16;65.88;101382.25;5084824;28;20320;-70
2023/06/09 08:05:32;;;;;;;14.20;10.30;;;;;;;21.21;65.50;101379.31;5083721;28;20463;-72
2023/06/09 08:07:57;;;;;;;24.73;11.82;;;;;;;21.40;64.14;101387.06;5084625;28;20187;-72
2023/06/09 08:10:23;;;;;;;14.13;10.63;;;;;;;21.48;63.50;101383.00;5082532;28;20031;-72
2023/06/09 08:12:50;;;;;;;15.70;10.68;;;;;;;21.60;64.16;101386.69;5088021;28;20032;-72
2023/06/09 08:15:15;;;;;;;15.82;11.40;;;;;;;21.66;63.95;101374.88;5080284;28;20070;-69
2023/06/09 08:17:41;;;;;;;16.35;10.77;;;;;;;21.74;64.46;101373.47;5089024;28;20025;-69
2023/06/09 08:20:07;;;;;;;19.80;11.25;;;;;;;21.87;62.54;101370.84;5080798;28;20032;-69
2023/06/09 08:22:32;;;;;;;18.00;11.02;;;;;;;21.93;63.21;101373.13;5076671;28;20029;-69
2023/06/09 08:24:59;;;;;;;14.02;10.73;;;;;;;22.03;61.69;101356.63;5083982;28;20073;-69
2023/06/09 08:27:24;;;;;;;16.48;10.88;;;;;;;22.25;61.34;101364.13;5082994;28;20557;-69
2023/06/09 08:29:50;;;;;;;13.55;9.32;;;;;;;22.34;60.12;101368.84;5082014;28;20036;-69
2023/06/09 08:32:15;;;;;;;11.73;9.25;;;;;;;22.47;58.40;101361.78;5085681;28;20021;-69
2023/06/09 08:34:41;;;;;;;13.70;9.18;;;;;;;22.54;58.64;101371.06;5080797;28;20044;-69
2023/06/09 08:37:07;;;;;;;13.63;8.95;;;;;;;22.66;56.33;101366.72;5087085;28;20151;-69
2023/06/09 08:39:33;;;;;;;13.35;8.57;;;;;;;22.74;55.77;101367.09;5076593;28;20486;-69
2023/06/09 08:42:01;;;;;;;19.58;9.52;;;;;;;22.85;57.49;101366.38;5085806;28;20515;-69
2023/06/09 08:44:28;;;;;;;15.55;9.77;;;;;;;23.03;57.58;101367.81;5080787;28;20074;-69
2023/06/09 08:47:00;;;;;;;16.38;9.80;;;;;;;23.09;53.95;101370.06;5087776;28;20432;-69
2023/06/09 08:49:26;;;;;;;14.32;9.10;;;;;;;23.23;55.94;101357.66;5079971;28;20071;-69
2023/06/09 08:51:52;;;;;;;13.30;9.98;;;;;;;23.36;55.53;101364.66;5087528;28;20032;-69
2023/06/09 08:54:17;;;;;;;17.95;9.88;;;;;;;23.47;55.59;101365.72;5080989;28;20061;-69
2023/06/09 08:56:43;;;;;;;14.75;10.38;;;;;;;23.49;53.60;101362.00;5085187;28;20479;-69
2023/06/09 08:59:09;;;;;;;16.98;9.82;;;;;;;23.42;53.00;101351.91;5082653;28;20039;-69
2023/06/09 09:01:36;;;;;;;13.02;9.07;;;;;;;23.57;52.97;101364.13;5084297;28;20051;-69
2023/06/09 09:04:02;;;;;;;13.10;9.25;;;;;;;23.70;52.30;101359.69;5082945;28;20027;-69
2023/06/09 09:06:27;;;;;;;14.45;8.75;;;;;;;23.80;51.09;101358.06;5083415;28;20396;-69
2023/06/09 09:08:52;;;;;;;12.82;9.35;;;;;;;23.94;52.58;101362.44;5083705;28;20031;-69
2023/06/09 09:11:18;;;;;;;16.85;9.30;;;;;;;24.02;52.31;101360.03;5082598;28;20028;-69
2023/06/09 09:13:47;;;;;;;11.82;10.13;;;;;;;24.27;50.52;101355.63;5083074;28;20024;-69
2023/06/09 09:16:14;;;;;;;12.07;9.77;;;;;;;24.36;49.83;101346.97;5084054;28;20028;-69
2023/06/09 09:18:45;;;;;;;14.73;8.90;;;;;;;24.52;50.86;101347.56;5085046;28;20064;-69
2023/06/09 09:21:20;;;;;;;13.65;9.43;;;;;;;24.61;49.98;101353.16;5087785;28;20028;-69
2023/06/09 09:23:55;;;;;;;15.32;9.23;;;;;;;24.68;50.31;101338.41;5079882;28;20036;-69
2023/06/09 09:26:27;;;;;;;14.43;9.48;;;;;;;24.75;50.41;101348.50;5089484;28;20050;-69
2023/06/09 09:28:55;;;;;;;13.17;9.73;;;;;;;24.89;48.15;101343.94;5084292;28;20036;-69
2023/06/09 09:31:21;;;;;;;13.77;9.27;;;;;;;25.03;49.01;101334.88;5088544;28;20270;-69
2023/06/09 09:33:48;;;;;;;16.63;9.18;;;;;;;25.08;47.17;101333.56;5085918;28;20035;-69
2023/06/09 09:36:13;;;;;;;10.80;8.48;;;;;;;25.22;48.19;101332.53;5080678;28;20510;-69
2023/06/09 09:38:43;;;;;;;11.68;9.18;;;;;;;25.32;46.65;101325.50;5086486;28;20032;-70
2023/06/09 09:41:13;;;;;;;12.68;9.07;;;;;;;25.52;47.16;101328.44;5079448;28;20032;-69
2023/06/09 09:43:40;;;;;;;13.30;8.68;;;;;;;25.61;47.42;101327.72;5087117;28;20034;-70
2023/06/09 09:46:06;;;;;;;11.88;9.00;;;;;;;25.67;47.38;101324.56;5084956;28;20376;-69
2023/06/09 09:48:34;;;;;;;11.45;7.88;;;;;;;25.85;45.75;101323.09;5086933;28;20531;-69
2023/06/09 09:51:00;;;;;;;9.50;7.57;;;;;;;25.85;43.54;101323.09;5085711;28;20067;-69
2023/06/09 09:53:26;;;;;;;10.80;7.28;;;;;;;25.91;44.10;101325.28;5086356;28;20082;-70
2023/06/09 09:55:54;;;;;;;10.07;8.00;;;;;;;26.03;45.10;101325.25;5086777;28;20039;-69
2023/06/09 09:58:29;;;;;;;10.45;7.45;;;;;;;26.14;44.57;101317.22;5085952;28;20480;-69
2023/06/09 10:00:57;;;;;;;10.18;7.43;;;;;;;26.21;42.09;101323.75;5086171;28;20057;-69
2023/06/09 10:03:23;;;;;;;9.77;7.60;;;;;;;26.25;42.36;101317.19;5085768;28;20074;-69
2023/06/09 10:05:49;;;;;;;9.80;7.15;;;;;;;26.32;41.80;101306.84;5086668;28;20024;-70
2023/06/09 10:08:21;;;;;;;8.88;6.70;;;;;;;26.62;42.85;101314.19;5085314;28;20108;-70
2023/06/09 10:10:47;;;;;;;7.95;7.15;;;;;;;26.70;41.55;101314.38;5086343;28;20028;-69
2023/06/09 10:13:14;;;;;;;10.98;7.60;;;;;;;26.65;41.28;101313.06;5086789;28;20032;-69
2023/06/09 10:15:42;;;;;;;8.43;7.60;;;;;;;26.73;41.57;101307.91;5085066;28;20078;-70
2023/06/09 10:18:08;;;;;;;12.18;7.57;;;;;;;26.85;43.16;101305.06;5088564;28;20032;-69
2023/06/09 10:20:33;;;;;;;10.20;7.30;;;;;;;27.08;42.38;101318.31;5083561;28;20042;-69
2023/06/09 10:22:59;;;;;;;10.85;8.00;;;;;;;27.10;41.80;101308.28;5085343;28;20020;-69
2023/06/09 10:25:26;;;;;;;9.35;8.35;;;;;;;27.11;40.60;101307.34;5085396;28;20054;-69
2023/06/09 10:27:51;;;;;;;11.95;8.30;;;;;;;27.15;40.25;101295.41;5084648;28;20534;-69
2023/06/09 10:30:18;;;;;;;10.10;8.05;;;;;;;27.17;41.70;101312.16;5085355;28;20063;-69
2023/06/09 10:32:47;;;;;;;10.93;7.82;;;;;;;27.14;41.17;101306.22;5084228;28;20036;-70
2023/06/09 10:35:17;;;;;;;13.05;8.32;;;;;;;27.19;39.92;101307.53;5085617;28;20103;-69
2023/06/09 10:37:45;;;;;;;11.05;8.10;;;;;;;27.26;39.94;101302.50;5084293;28;20021;-69
2023/06/09 10:40:20;;;;;;;14.57;8.48;;;;;;;27.37;40.50;101304.25;5081134;28;20107;-69
2023/06/09 10:43:07;;;;;;;9.43;7.95;;;;;;;27.57;39.64;101300.69;5084217;28;20107;-69
2023/06/09 10:45:52;;;;;;;13.30;7.82;;;;;;;27.67;40.35;101298.88;5076641;28;20029;-69
2023/06/09 10:48:42;;;;;;;11.38;8.07;;;;;;;27.90;40.27;101290.66;5086125;28;20027;-70
2023/06/09 10:51:26;;;;;;;8.95;7.30;;;;;;;27.98;39.28;101288.13;5084865;28;20120;-69
2023/06/09 10:54:07;;;;;;;13.40;7.47;;;;;;;27.98;39.17;101285.44;5085836;28;20040;-70
2023/06/09 10:56:42;;;;;;;9.20;7.13;;;;;;;28.03;39.18;101283.22;5084570;28;20494;-69
2023/06/09 10:59:25;;;;;;;11.77;7.50;;;;;;;28.27;39.47;101281.94;5085565;28;20032;-69
2023/06/09 11:02:02;;;;;;;10.30;7.93;;;;;;;28.42;38.62;101278.75;5082404;28;20051;-70
2023/06/09 11:04:45;;;;;;;11.25;7.55;;;;;;;28.44;38.17;101283.97;5082349;28;20024;-70
2023/06/09 11:07:14;;;;;;;10.75;8.75;;;;;;;28.38;35.82;101273.75;5090381;28;20191;-70
2023/06/09 11:10:00;;;;;;;10.02;8.10;;;;;;;28.47;36.35;101286.34;5076587;28;20050;-69
2023/06/09 11:12:49;;;;;;;8.15;7.18;;;;;;;28.64;37.78;101274.91;5090165;28;20540;-69
2023/06/09 11:15:17;;;;;;;8.60;7.63;;;;;;;28.72;35.85;101274.19;5082095;28;20028;-69
2023/06/09 11:17:44;;;;;;;9.98;7.00;;;;;;;28.81;37.22;101278.72;5089741;28;20047;-69